Time;durP1;ratioP1;P1;durP2;ratioP2;P2;SDS_P1;SDS_P2;PMS_P1;PMS_P2;Temp;Humidity;BMP_temperature;BMP_pressure;BME280_temperature;BME280_humidity;BME280_pressure;Samples;Min_cycle;Max_cycle;Signal;HPM_P1;HPM_P2
2023/08/24 00:00:53;;;;;;;4.65;4.03;;;19.70;99.90;;;;;;2496006;23;20058;-73
2023/08/24 00:01:54;;;;;;;4.35;3.70;;;19.60;99.90;;;;;;2495119;23;20483;-73
2023/08/24 00:02:54;;;;;;;4.53;3.70;;;19.60;99.90;;;;;;2495430;23;20031;-73
2023/08/24 00:03:55;;;;;;;6.07;3.58;;;19.60;99.90;;;;;;2496289;23;20006;-73
2023/08/24 00:04:56;;;;;;;5.53;4.07;;;19.60;99.90;;;;;;2496855;23;20646;-73
2023/08/24 00:05:57;;;;;;;5.25;4.38;;;19.60;99.90;;;;;;2496393;23;19999;-73
2023/08/24 00:06:57;;;;;;;5.10;4.63;;;19.60;99.90;;;;;;2496248;23;20030;-73
2023/08/24 00:07:58;;;;;;;4.60;3.78;;;19.60;99.90;;;;;;2496795;23;20673;-73
2023/08/24 00:08:59;;;;;;;7.43;4.10;;;19.60;99.90;;;;;;2496670;23;20003;-73
2023/08/24 00:09:59;;;;;;;5.07;3.80;;;19.60;99.90;;;;;;2496926;23;20328;-73
2023/08/24 00:11:00;;;;;;;4.53;3.75;;;19.60;99.90;;;;;;2496320;23;20004;-73
2023/08/24 00:12:00;;;;;;;5.57;3.70;;;19.60;99.90;;;;;;2495545;23;20031;-73
2023/08/24 00:13:01;;;;;;;8.13;4.50;;;19.60;99.90;;;;;;2496832;23;20014;-73
2023/08/24 00:14:02;;;;;;;5.50;3.95;;;19.60;99.90;;;;;;2496869;23;20002;-73
2023/08/24 00:15:04;;;;;;;4.35;3.72;;;19.60;99.90;;;;;;2496393;23;20003;-73
2023/08/24 00:16:04;;;;;;;5.45;3.83;;;19.50;99.90;;;;;;2496865;23;19999;-73
2023/08/24 00:17:05;;;;;;;6.00;3.90;;;19.50;99.90;;;;;;2496289;23;20059;-73
2023/08/24 00:18:06;;;;;;;5.65;3.80;;;19.50;99.90;;;;;;2497142;23;20007;-73
2023/08/24 00:19:07;;;;;;;4.70;4.10;;;19.50;99.90;;;;;;2497132;23;19992;-73
2023/08/24 00:20:10;;;;;;;6.10;4.63;;;19.50;99.90;;;;;;2495736;23;20014;-73
2023/08/24 00:21:13;;;;;;;6.20;3.83;;;19.50;99.90;;;;;;2497030;23;20083;-73
2023/08/24 00:22:14;;;;;;;4.13;3.53;;;19.50;99.90;;;;;;2494325;23;20023;-73
2023/08/24 00:23:14;;;;;;;5.13;3.60;;;19.50;99.90;;;;;;2496637;23;20477;-73
2023/08/24 00:24:15;;;;;;;5.57;3.50;;;19.50;99.90;;;;;;2496626;23;20035;-73
2023/08/24 00:25:15;;;;;;;5.45;4.22;;;19.50;99.90;;;;;;2497372;23;20079;-73
2023/08/24 00:26:19;;;;;;;5.25;3.97;;;19.40;99.90;;;;;;2495438;23;20004;-73
2023/08/24 00:27:20;;;;;;;4.15;3.75;;;19.40;99.90;;;;;;2496832;23;20039;-73
2023/08/24 00:28:20;;;;;;;5.45;3.90;;;19.40;99.90;;;;;;2496736;23;20011;-73
2023/08/24 00:29:21;;;;;;;6.35;3.65;;;19.40;99.90;;;;;;2496715;23;20452;-73
2023/08/24 00:30:23;;;;;;;4.28;3.58;;;19.40;99.90;;;;;;2496431;23;20004;-73
2023/08/24 00:31:24;;;;;;;6.18;3.25;;;19.40;99.90;;;;;;2496602;23;20007;-73
2023/08/24 00:32:24;;;;;;;5.82;3.58;;;19.40;99.90;;;;;;2495052;23;20004;-73
2023/08/24 00:33:25;;;;;;;5.18;3.90;;;19.40;99.90;;;;;;2496315;23;20402;-73
2023/08/24 00:34:26;;;;;;;4.75;3.83;;;19.40;99.90;;;;;;2496833;23;20007;-73
2023/08/24 00:35:26;;;;;;;3.88;3.53;;;19.40;99.90;;;;;;2496699;23;20769;-73
2023/08/24 00:36:27;;;;;;;6.15;3.67;;;19.40;99.90;;;;;;2496322;23;20329;-73
2023/08/24 00:37:28;;;;;;;5.75;3.33;;;19.40;99.90;;;;;;2497097;23;20003;-73
2023/08/24 00:38:29;;;;;;;5.18;3.92;;;19.40;99.90;;;;;;2495984;23;20003;-73
2023/08/24 00:39:29;;;;;;;5.18;3.95;;;19.40;99.90;;;;;;2497280;23;20027;-73
2023/08/24 00:40:30;;;;;;;5.03;4.18;;;19.40;99.90;;;;;;2495842;23;20015;-73
2023/08/24 00:41:30;;;;;;;4.90;3.70;;;19.40;99.90;;;;;;2496604;23;20011;-73
2023/08/24 00:42:31;;;;;;;4.70;3.92;;;19.30;99.90;;;;;;2495326;23;20063;-73
2023/08/24 00:43:32;;;;;;;4.05;3.55;;;19.30;99.90;;;;;;2496581;23;20007;-73
2023/08/24 00:44:33;;;;;;;5.60;4.00;;;19.30;99.90;;;;;;2484463;23;20087;-73
2023/08/24 00:45:35;;;;;;;4.07;3.70;;;19.30;99.90;;;;;;2483159;23;20757;-73
2023/08/24 00:46:36;;;;;;;4.30;3.90;;;19.30;99.90;;;;;;2484192;23;20108;-73
2023/08/24 00:47:44;;;;;;;4.43;4.03;;;19.30;99.90;;;;;;2496982;23;20059;-73
2023/08/24 00:48:45;;;;;;;4.32;3.67;;;19.30;99.90;;;;;;2496434;23;20511;-73
2023/08/24 00:49:46;;;;;;;5.13;3.80;;;19.30;99.90;;;;;;2495860;23;20016;-73
2023/08/24 00:50:47;;;;;;;9.02;4.10;;;19.30;99.90;;;;;;2495921;23;20468;-73
2023/08/24 00:51:47;;;;;;;7.90;3.97;;;19.30;99.90;;;;;;2496381;23;20018;-73
2023/08/24 00:52:49;;;;;;;4.65;3.58;;;19.30;99.90;;;;;;2496299;23;20003;-73
2023/08/24 00:53:50;;;;;;;5.47;3.63;;;19.30;99.90;;;;;;2496267;23;20013;-73
2023/08/24 00:54:51;;;;;;;4.53;3.85;;;19.30;99.90;;;;;;2495310;23;20011;-73
2023/08/24 00:55:53;;;;;;;4.63;4.05;;;19.30;99.90;;;;;;2484288;23;20099;-73
2023/08/24 00:56:54;;;;;;;4.70;4.20;;;19.30;99.90;;;;;;2484338;23;20096;-73
2023/08/24 00:57:56;;;;;;;4.47;4.07;;;19.30;99.90;;;;;;2496809;23;20003;-73
2023/08/24 00:58:57;;;;;;;4.30;3.90;;;19.30;99.90;;;;;;2484103;23;20110;-73
2023/08/24 01:00:01;;;;;;;4.95;4.45;;;19.30;99.90;;;;;;2483410;23;20011;-73
2023/08/24 01:01:03;;;;;;;4.28;3.88;;;19.20;99.90;;;;;;2496378;23;20240;-73
2023/08/24 01:02:03;;;;;;;5.18;3.40;;;19.20;99.90;;;;;;2495933;23;19999;-73
2023/08/24 01:03:04;;;;;;;4.07;3.65;;;19.20;99.90;;;;;;2496116;23;20000;-73
2023/08/24 01:04:07;;;;;;;4.20;3.80;;;19.20;99.90;;;;;;2496635;23;20007;-73
2023/08/24 01:05:08;;;;;;;5.35;4.10;;;19.20;99.90;;;;;;2496136;23;20003;-72
2023/08/24 01:06:08;;;;;;;5.32;3.75;;;19.20;99.90;;;;;;2496186;23;19995;-73
2023/08/24 01:07:10;;;;;;;6.88;4.53;;;19.20;99.90;;;;;;2495978;23;20066;-72
2023/08/24 01:08:11;;;;;;;4.28;3.92;;;19.20;99.90;;;;;;2496726;23;20441;-72
2023/08/24 01:09:12;;;;;;;7.18;4.05;;;19.20;99.90;;;;;;2496675;23;19999;-72
2023/08/24 01:10:12;;;;;;;7.53;4.07;;;19.20;99.90;;;;;;2495366;23;20023;-72
2023/08/24 01:11:29;;;;;;;7.70;4.07;;;19.20;99.90;;;;;;2496505;23;20023;-72
2023/08/24 01:12:56;;;;;;;4.30;3.22;;;19.10;99.90;;;;;;2495779;23;20012;-73
2023/08/24 01:14:29;;;;;;;7.00;4.35;;;19.10;99.90;;;;;;2496214;23;20224;-73
2023/08/24 01:15:39;;;;;;;3.92;3.63;;;19.10;99.90;;;;;;2495188;23;20345;-73
2023/08/24 01:16:43;;;;;;;4.38;3.97;;;19.10;99.90;;;;;;2496339;23;20038;-72
2023/08/24 01:17:46;;;;;;;7.88;4.00;;;19.00;99.90;;;;;;2496380;23;20560;-73
2023/08/24 01:18:48;;;;;;;4.85;4.15;;;19.00;99.90;;;;;;2496261;23;20729;-73
2023/08/24 01:19:50;;;;;;;5.88;4.38;;;19.00;99.90;;;;;;2495663;23;20046;-73
2023/08/24 01:20:51;;;;;;;4.65;4.20;;;19.10;99.90;;;;;;2496673;23;20011;-73
2023/08/24 01:21:55;;;;;;;5.80;4.57;;;19.00;99.90;;;;;;2496372;23;20113;-73
2023/08/24 01:23:07;;;;;;;4.20;3.72;;;19.00;99.90;;;;;;2494762;23;20086;-73
2023/08/24 01:24:13;;;;;;;7.22;3.90;;;19.00;99.90;;;;;;2496488;23;20030;-73
2023/08/24 01:25:37;;;;;;;4.68;3.92;;;19.00;99.90;;;;;;2496535;23;20003;-73
2023/08/24 01:26:39;;;;;;;4.95;4.55;;;19.00;99.90;;;;;;2495961;23;20011;-73
2023/08/24 01:27:41;;;;;;;6.72;4.38;;;18.90;99.90;;;;;;2495698;23;20034;-73
2023/08/24 01:28:43;;;;;;;5.10;4.60;;;18.90;99.90;;;;;;2496349;23;20011;-73
2023/08/24 01:29:45;;;;;;;6.00;4.88;;;19.00;99.90;;;;;;2495647;23;20007;-73
2023/08/24 01:30:46;;;;;;;6.13;5.00;;;19.00;99.90;;;;;;2484124;23;20007;-73
2023/08/24 01:31:49;;;;;;;5.18;4.68;;;18.90;99.90;;;;;;2483423;23;20095;-73
2023/08/24 01:32:50;;;;;;;5.35;4.25;;;18.90;99.90;;;;;;2495676;23;20448;-73
2023/08/24 01:33:50;;;;;;;5.45;4.50;;;18.90;99.90;;;;;;2496624;23;20556;-73
2023/08/24 01:34:51;;;;;;;5.82;4.85;;;18.90;99.90;;;;;;2493605;23;20003;-73
2023/08/24 01:35:51;;;;;;;5.57;4.35;;;18.90;99.90;;;;;;2495982;23;20062;-73
2023/08/24 01:36:52;;;;;;;5.50;4.65;;;18.90;99.90;;;;;;2484162;23;20004;-73
2023/08/24 01:37:52;;;;;;;5.90;4.47;;;18.90;99.90;;;;;;2496289;23;20082;-73
2023/08/24 01:39:14;;;;;;;7.03;4.18;;;18.90;99.90;;;;;;2496687;23;20046;-73
2023/08/24 01:40:30;;;;;;;6.75;4.22;;;18.90;99.90;;;;;;2481913;23;20420;-73
2023/08/24 01:41:42;;;;;;;5.90;4.95;;;18.90;99.90;;;;;;2487145;23;20011;-73
2023/08/24 01:42:58;;;;;;;6.03;4.40;;;18.80;99.90;;;;;;2496185;23;20410;-73
2023/08/24 01:44:01;;;;;;;7.05;5.05;;;18.80;99.90;;;;;;2496278;23;20017;-73
2023/08/24 01:45:05;;;;;;;4.38;3.97;;;18.80;99.90;;;;;;2495796;23;20011;-73
2023/08/24 01:46:07;;;;;;;7.30;5.22;;;18.80;99.90;;;;;;2496821;23;20067;-72
2023/08/24 01:47:11;;;;;;;10.30;5.22;;;18.80;99.90;;;;;;2495944;23;20018;-72
2023/08/24 01:48:13;;;;;;;5.32;4.82;;;18.80;99.90;;;;;;2495895;23;20014;-72
2023/08/24 01:49:15;;;;;;;7.57;4.97;;;18.80;99.90;;;;;;2496882;23;20515;-74
2023/08/24 01:50:16;;;;;;;5.50;4.85;;;18.80;99.90;;;;;;2495915;23;20007;-74
2023/08/24 01:51:17;;;;;;;5.15;4.65;;;18.80;99.90;;;;;;2496245;23;20388;-71
2023/08/24 01:52:19;;;;;;;7.18;5.20;;;18.80;99.90;;;;;;2496002;23;20015;-74
2023/08/24 01:53:20;;;;;;;5.97;5.38;;;18.80;99.90;;;;;;2496548;23;20018;-74
2023/08/24 01:54:21;;;;;;;8.20;5.55;;;18.80;99.90;;;;;;2496000;23;20003;-74
2023/08/24 01:55:21;;;;;;;5.32;4.40;;;18.80;99.90;;;;;;2496327;23;20417;-72
2023/08/24 01:56:22;;;;;;;6.25;5.20;;;18.80;99.90;;;;;;2494385;23;20059;-72
2023/08/24 01:57:23;;;;;;;5.10;4.65;;;18.70;99.90;;;;;;2496234;23;20010;-72
2023/08/24 01:58:23;;;;;;;6.53;5.03;;;18.70;99.90;;;;;;2496949;23;20003;-72
2023/08/24 01:59:24;;;;;;;5.93;4.78;;;18.70;99.90;;;;;;2496403;23;20003;-72
2023/08/24 02:00:24;;;;;;;5.78;5.15;;;18.70;99.90;;;;;;2495541;23;20015;-72
2023/08/24 02:01:25;;;;;;;5.60;5.10;;;18.70;99.90;;;;;;2496171;23;20003;-72
2023/08/24 02:02:26;;;;;;;8.80;5.97;;;18.70;99.90;;;;;;2495551;23;20031;-71
2023/08/24 02:03:26;;;;;;;6.45;4.93;;;18.70;99.90;;;;;;2496897;23;20340;-72
2023/08/24 02:04:27;;;;;;;6.60;5.43;;;18.70;99.90;;;;;;2496454;23;20031;-71
2023/08/24 02:05:28;;;;;;;5.72;4.57;;;18.70;99.90;;;;;;2496672;23;20007;-72
2023/08/24 02:06:29;;;;;;;6.63;5.68;;;18.70;99.90;;;;;;2496070;23;20034;-72
2023/08/24 02:07:30;;;;;;;6.22;5.22;;;18.70;99.90;;;;;;2497027;23;20030;-74
2023/08/24 02:08:30;;;;;;;8.10;5.43;;;18.70;99.90;;;;;;2496152;23;20085;-74
2023/08/24 02:09:31;;;;;;;6.03;4.82;;;18.70;99.90;;;;;;2495934;23;20018;-72
2023/08/24 02:10:32;;;;;;;8.07;5.38;;;18.70;99.90;;;;;;2495989;23;20451;-72
2023/08/24 02:11:32;;;;;;;7.53;6.30;;;18.70;99.90;;;;;;2495613;23;20007;-72
2023/08/24 02:12:33;;;;;;;5.43;4.90;;;18.70;99.90;;;;;;2495717;23;20380;-72
2023/08/24 02:13:33;;;;;;;8.05;6.22;;;18.70;99.90;;;;;;2496281;23;19999;-72
2023/08/24 02:14:34;;;;;;;6.28;5.30;;;18.60;99.90;;;;;;2496442;23;20034;-72
2023/08/24 02:15:35;;;;;;;6.50;5.53;;;18.70;99.90;;;;;;2496266;23;19999;-74
2023/08/24 02:16:36;;;;;;;6.90;4.65;;;18.60;99.90;;;;;;2495686;23;20004;-72
2023/08/24 02:17:36;;;;;;;6.47;5.55;;;18.60;99.90;;;;;;2496241;23;20113;-72
2023/08/24 02:18:37;;;;;;;5.25;4.75;;;18.60;99.90;;;;;;2495361;23;20102;-72
2023/08/24 02:19:37;;;;;;;6.30;5.65;;;18.60;99.90;;;;;;2495942;23;20046;-72
2023/08/24 02:20:38;;;;;;;6.95;6.20;;;18.60;99.90;;;;;;2494985;23;20086;-72
2023/08/24 02:21:39;;;;;;;6.70;5.80;;;18.60;99.90;;;;;;2496303;23;20483;-72
2023/08/24 02:22:39;;;;;;;7.53;5.85;;;18.60;99.90;;;;;;2495563;23;20689;-74
2023/08/24 02:23:40;;;;;;;8.20;5.68;;;18.60;99.90;;;;;;2496530;23;20309;-74
2023/08/24 02:24:40;;;;;;;8.25;6.35;;;18.60;99.90;;;;;;2483359;23;20019;-74
2023/08/24 02:25:44;;;;;;;6.32;5.72;;;18.60;99.90;;;;;;2483860;23;20008;-74
2023/08/24 02:26:44;;;;;;;7.90;6.15;;;18.60;99.90;;;;;;2496576;23;20317;-73
2023/08/24 02:27:45;;;;;;;7.53;6.50;;;18.50;99.90;;;;;;2495915;23;20082;-74
2023/08/24 02:28:45;;;;;;;6.78;6.03;;;18.60;99.90;;;;;;2483655;23;20008;-74
2023/08/24 02:29:46;;;;;;;7.30;5.55;;;18.60;99.90;;;;;;2483947;23;20571;-73
2023/08/24 02:30:46;;;;;;;5.90;5.32;;;18.60;99.90;;;;;;2495456;23;20824;-74
2023/08/24 02:31:50;;;;;;;8.20;6.00;;;18.60;99.90;;;;;;2496463;23;20030;-73
2023/08/24 02:32:51;;;;;;;7.13;6.13;;;18.60;99.90;;;;;;2494602;23;20003;-74
2023/08/24 02:33:52;;;;;;;8.45;5.75;;;18.50;99.90;;;;;;2496837;23;20059;-73
2023/08/24 02:34:52;;;;;;;7.90;7.10;;;18.50;99.90;;;;;;2495164;23;20070;-73
2023/08/24 02:35:53;;;;;;;7.20;6.05;;;18.50;99.90;;;;;;2496101;23;20055;-73
2023/08/24 02:36:53;;;;;;;9.57;6.30;;;18.50;99.90;;;;;;2495580;23;20436;-74
2023/08/24 02:37:56;;;;;;;8.60;6.97;;;18.50;99.90;;;;;;2495392;23;20007;-73
2023/08/24 02:38:57;;;;;;;6.63;5.88;;;18.50;99.90;;;;;;2496475;23;20083;-73
2023/08/24 02:39:57;;;;;;;15.07;7.13;;;18.50;99.90;;;;;;2495500;23;20018;-73
2023/08/24 02:41:06;;;;;;;6.50;5.90;;;18.50;99.90;;;;;;2495671;23;20022;-74
2023/08/24 02:42:06;;;;;;;8.32;5.25;;;18.50;99.90;;;;;;2495667;23;20055;-74
2023/08/24 02:43:07;;;;;;;7.03;6.38;;;18.50;99.90;;;;;;2494701;23;20019;-73
2023/08/24 02:44:08;;;;;;;8.02;6.13;;;18.50;99.90;;;;;;2496293;23;20255;-74
2023/08/24 02:45:09;;;;;;;7.47;6.22;;;18.50;99.90;;;;;;2495784;23;20007;-74
2023/08/24 02:46:10;;;;;;;7.68;6.47;;;18.50;99.90;;;;;;2495389;23;20030;-74
2023/08/24 02:47:10;;;;;;;7.32;5.32;;;18.50;99.90;;;;;;2495469;23;20009;-73
2023/08/24 02:48:11;;;;;;;6.45;5.95;;;18.50;99.90;;;;;;2482742;23;20011;-73
2023/08/24 02:49:11;;;;;;;6.57;5.63;;;18.50;99.90;;;;;;2483859;23;20011;-73
2023/08/24 02:50:12;;;;;;;8.00;6.45;;;18.50;99.90;;;;;;2494415;23;20004;-73
2023/08/24 02:51:13;;;;;;;6.57;5.47;;;18.50;99.90;;;;;;2496576;23;19995;-74
2023/08/24 02:52:13;;;;;;;7.72;6.35;;;18.50;99.90;;;;;;2483227;23;20003;-73
2023/08/24 02:53:14;;;;;;;10.27;6.35;;;18.50;99.90;;;;;;2482396;23;20012;-74
2023/08/24 02:54:14;;;;;;;6.95;6.25;;;18.40;99.90;;;;;;2484053;23;20095;-74
2023/08/24 02:55:15;;;;;;;7.50;6.53;;;18.40;99.90;;;;;;2483570;23;20440;-74
2023/08/24 02:56:16;;;;;;;9.15;7.10;;;18.40;99.90;;;;;;2495856;23;19999;-74
2023/08/24 02:57:16;;;;;;;9.13;6.55;;;18.40;99.90;;;;;;2484229;23;20032;-74
2023/08/24 02:58:17;;;;;;;7.18;6.47;;;18.40;99.90;;;;;;2483706;23;20008;-74
2023/08/24 02:59:18;;;;;;;6.93;6.22;;;18.40;99.90;;;;;;2496508;23;20439;-74
2023/08/24 03:00:18;;;;;;;10.15;6.78;;;18.40;99.90;;;;;;2495123;23;20015;-74
2023/08/24 03:01:19;;;;;;;9.40;6.78;;;18.40;99.90;;;;;;2496623;23;20078;-74
2023/08/24 03:02:19;;;;;;;9.73;7.30;;;18.40;99.90;;;;;;2495419;23;20960;-74
2023/08/24 03:03:20;;;;;;;7.10;6.10;;;18.40;99.90;;;;;;2495566;23;20392;-74
2023/08/24 03:04:21;;;;;;;9.48;5.90;;;18.40;99.90;;;;;;2495794;23;20019;-74
2023/08/24 03:05:21;;;;;;;6.22;5.70;;;18.40;99.90;;;;;;2495678;23;20340;-74
2023/08/24 03:06:24;;;;;;;8.13;6.43;;;18.40;99.90;;;;;;2495615;23;20007;-74
2023/08/24 03:07:24;;;;;;;6.40;5.80;;;18.40;99.90;;;;;;2496378;23;20007;-74
2023/08/24 03:08:25;;;;;;;8.52;6.45;;;18.40;99.90;;;;;;2495996;23;20429;-74
2023/08/24 03:09:26;;;;;;;7.47;6.03;;;18.40;99.90;;;;;;2496316;23;20033;-73
2023/08/24 03:10:26;;;;;;;7.60;6.82;;;18.40;99.90;;;;;;2495658;23;20011;-74
2023/08/24 03:11:27;;;;;;;6.63;5.90;;;18.40;99.90;;;;;;2495610;23;20007;-74
2023/08/24 03:12:27;;;;;;;6.35;5.22;;;18.40;99.90;;;;;;2495744;23;20102;-73
2023/08/24 03:13:29;;;;;;;8.55;5.53;;;18.40;99.90;;;;;;2482980;23;20008;-74
2023/08/24 03:14:30;;;;;;;6.60;5.93;;;18.40;99.90;;;;;;2483830;23;20007;-73
2023/08/24 03:15:31;;;;;;;6.28;5.68;;;18.40;99.90;;;;;;2496344;23;20003;-74
2023/08/24 03:16:31;;;;;;;6.72;5.53;;;18.40;99.90;;;;;;2496150;23;20412;-74
2023/08/24 03:17:32;;;;;;;8.05;5.78;;;18.40;99.90;;;;;;2483437;23;20449;-74
2023/08/24 03:18:33;;;;;;;10.23;6.15;;;18.40;99.90;;;;;;2483373;23;20004;-73
2023/08/24 03:19:33;;;;;;;8.70;6.60;;;18.40;99.90;;;;;;2496118;23;20078;-74
2023/08/24 03:20:34;;;;;;;6.53;5.43;;;18.40;99.90;;;;;;2494883;23;20547;-74
2023/08/24 03:21:34;;;;;;;9.30;5.30;;;18.40;99.90;;;;;;2495733;23;20031;-73
2023/08/24 03:22:36;;;;;;;8.63;5.95;;;18.40;99.90;;;;;;2495437;23;20014;-74
2023/08/24 03:23:36;;;;;;;6.55;5.63;;;18.40;99.90;;;;;;2495258;23;20018;-74
2023/08/24 03:24:37;;;;;;;6.53;5.93;;;18.50;99.90;;;;;;2496589;23;20018;-74
2023/08/24 03:25:40;;;;;;;6.28;5.32;;;18.40;99.90;;;;;;2495540;23;20012;-74
2023/08/24 03:26:40;;;;;;;8.20;7.00;;;18.50;99.90;;;;;;2494964;23;20091;-74
2023/08/24 03:27:41;;;;;;;8.00;7.20;;;18.50;99.90;;;;;;2495704;23;20011;-74
2023/08/24 03:28:42;;;;;;;8.27;7.13;;;18.50;99.90;;;;;;2495868;23;20017;-74
2023/08/24 03:29:43;;;;;;;9.27;7.28;;;18.50;99.90;;;;;;2496005;23;20003;-74
2023/08/24 03:30:52;;;;;;;8.88;8.07;;;18.50;99.90;;;;;;2495890;23;20564;-74
2023/08/24 03:31:53;;;;;;;8.73;7.68;;;18.50;99.90;;;;;;2495160;23;20011;-74
2023/08/24 03:32:53;;;;;;;7.25;6.53;;;18.50;99.90;;;;;;2494239;23;20030;-74
2023/08/24 03:33:54;;;;;;;8.13;7.05;;;18.50;99.90;;;;;;2496390;23;20015;-73
2023/08/24 03:34:59;;;;;;;7.28;6.32;;;18.50;99.90;;;;;;2495924;23;19996;-74
2023/08/24 03:35:59;;;;;;;8.02;6.57;;;18.50;99.90;;;;;;2495643;23;20694;-74
2023/08/24 03:37:00;;;;;;;7.53;6.82;;;18.50;99.90;;;;;;2496415;23;20022;-74
2023/08/24 03:38:01;;;;;;;8.30;7.10;;;18.50;99.90;;;;;;2495973;23;19999;-74
2023/08/24 03:39:01;;;;;;;8.40;7.00;;;18.50;99.90;;;;;;2496518;23;20006;-74
2023/08/24 03:40:03;;;;;;;8.10;7.30;;;18.60;99.90;;;;;;2495846;23;20030;-74
2023/08/24 03:41:05;;;;;;;9.38;7.43;;;18.50;99.90;;;;;;2482843;23;20063;-74
2023/08/24 03:42:06;;;;;;;9.27;6.85;;;18.50;99.90;;;;;;2483061;23;20008;-74
2023/08/24 03:43:06;;;;;;;7.25;6.55;;;18.60;99.90;;;;;;2495633;23;20019;-74
2023/08/24 03:44:07;;;;;;;8.25;7.45;;;18.60;99.90;;;;;;2495759;23;20009;-74
2023/08/24 03:45:08;;;;;;;8.35;6.88;;;18.60;99.90;;;;;;2496756;23;20332;-74
2023/08/24 03:46:08;;;;;;;10.43;6.55;;;18.60;99.90;;;;;;2495264;23;20030;-74
2023/08/24 03:47:09;;;;;;;9.63;7.10;;;18.60;99.90;;;;;;2496480;23;20550;-74
2023/08/24 03:48:10;;;;;;;8.52;7.65;;;18.60;99.90;;;;;;2496611;23;20068;-73
2023/08/24 03:49:10;;;;;;;7.00;6.28;;;18.60;99.90;;;;;;2482982;23;20008;-74
2023/08/24 03:50:11;;;;;;;9.65;5.60;;;18.60;99.90;;;;;;2483562;23;20004;-74
2023/08/24 03:51:12;;;;;;;8.00;7.25;;;18.60;99.90;;;;;;2483396;23;20061;-74
2023/08/24 03:52:12;;;;;;;9.07;7.25;;;18.60;99.90;;;;;;2495231;23;20003;-74
2023/08/24 03:53:13;;;;;;;8.68;7.88;;;18.60;99.90;;;;;;2483697;23;20004;-74
2023/08/24 03:54:13;;;;;;;9.98;7.40;;;18.70;99.90;;;;;;2483403;23;20012;-74
2023/08/24 03:55:14;;;;;;;7.38;6.68;;;18.70;99.90;;;;;;2496212;23;20004;-73
2023/08/24 03:56:14;;;;;;;7.82;7.03;;;18.70;99.90;;;;;;2494991;23;20007;-73
2023/08/24 03:57:15;;;;;;;12.18;7.63;;;18.70;99.90;;;;;;2495226;23;20338;-73
2023/08/24 03:58:16;;;;;;;6.88;6.20;;;18.70;99.90;;;;;;2496345;23;19999;-74
2023/08/24 03:59:17;;;;;;;8.90;6.72;;;18.70;99.90;;;;;;2495467;23;20035;-74
2023/08/24 04:00:17;;;;;;;8.05;6.75;;;18.70;99.90;;;;;;2495541;23;20003;-73
2023/08/24 04:01:18;;;;;;;11.02;7.05;;;18.70;99.90;;;;;;2496559;23;20757;-74
2023/08/24 04:02:18;;;;;;;6.60;5.97;;;18.70;99.90;;;;;;2495090;23;20043;-73
2023/08/24 04:03:19;;;;;;;6.57;5.93;;;18.70;99.90;;;;;;2483322;23;20139;-73
2023/08/24 04:04:19;;;;;;;7.93;6.85;;;18.80;99.90;;;;;;2483380;23;20107;-73
2023/08/24 04:05:20;;;;;;;7.28;6.57;;;18.80;99.90;;;;;;2490153;23;20007;-73
2023/08/24 04:06:20;;;;;;;8.82;7.10;;;18.80;99.90;;;;;;2495848;23;20076;-73
2023/08/24 04:07:21;;;;;;;6.68;6.15;;;18.80;99.90;;;;;;2495936;23;20439;-73
2023/08/24 04:08:21;;;;;;;6.68;5.60;;;18.80;99.90;;;;;;2482501;23;20008;-73
2023/08/24 04:09:22;;;;;;;6.78;6.07;;;18.80;99.90;;;;;;2483557;23;20090;-73
2023/08/24 04:10:22;;;;;;;6.72;6.13;;;18.80;99.90;;;;;;2494931;23;20801;-73
2023/08/24 04:11:23;;;;;;;7.90;7.03;;;18.80;99.90;;;;;;2495786;23;20011;-73
2023/08/24 04:12:23;;;;;;;9.07;6.32;;;18.80;99.90;;;;;;2495029;23;20011;-74
2023/08/24 04:13:24;;;;;;;10.48;7.00;;;18.80;99.90;;;;;;2495339;23;20333;-74
2023/08/24 04:14:25;;;;;;;7.50;6.65;;;18.80;99.90;;;;;;2482833;23;20008;-73
2023/08/24 04:15:25;;;;;;;7.75;7.05;;;18.90;99.90;;;;;;2483174;23;20004;-74
2023/08/24 04:16:26;;;;;;;8.38;6.68;;;18.90;99.90;;;;;;2494775;23;20070;-74
2023/08/24 04:17:26;;;;;;;8.50;6.47;;;18.90;99.90;;;;;;2494841;23;20007;-74
2023/08/24 04:18:27;;;;;;;9.23;5.72;;;18.90;99.90;;;;;;2495408;23;20341;-74
2023/08/24 04:19:28;;;;;;;8.05;6.55;;;18.90;99.90;;;;;;2494851;23;20038;-73
2023/08/24 04:20:28;;;;;;;6.97;6.05;;;18.90;99.90;;;;;;2495368;23;20012;-73
2023/08/24 04:21:29;;;;;;;8.52;6.90;;;18.90;99.90;;;;;;2495491;23;20011;-74
2023/08/24 04:22:29;;;;;;;10.57;7.18;;;18.90;99.90;;;;;;2482827;23;20012;-73
2023/08/24 04:23:30;;;;;;;8.18;7.47;;;18.90;99.90;;;;;;2483325;23;20607;-74
2023/08/24 04:24:30;;;;;;;9.00;6.70;;;18.90;99.90;;;;;;2495516;23;20047;-74
2023/08/24 04:25:31;;;;;;;11.30;7.53;;;18.90;99.90;;;;;;2495780;23;20011;-73
2023/08/24 04:26:31;;;;;;;7.72;6.72;;;18.90;99.90;;;;;;2496056;23;20046;-73
2023/08/24 04:27:32;;;;;;;8.00;6.78;;;19.00;99.90;;;;;;2494991;23;20428;-74
2023/08/24 04:28:33;;;;;;;7.53;6.82;;;19.00;99.90;;;;;;2495972;23;20045;-74
2023/08/24 04:29:33;;;;;;;8.88;7.15;;;19.00;99.90;;;;;;2496122;23;20018;-74
2023/08/24 04:30:34;;;;;;;8.38;6.53;;;19.00;99.90;;;;;;2495341;23;20401;-74
2023/08/24 04:31:35;;;;;;;12.07;7.53;;;19.00;99.90;;;;;;2496050;23;20014;-74
2023/08/24 04:32:35;;;;;;;9.65;6.88;;;19.00;99.90;;;;;;2495230;23;20047;-74
2023/08/24 04:33:36;;;;;;;10.07;6.70;;;19.00;99.90;;;;;;2495793;23;20027;-73
2023/08/24 04:34:36;;;;;;;9.55;6.75;;;19.00;99.90;;;;;;2496208;23;20003;-74
2023/08/24 04:35:37;;;;;;;7.90;6.85;;;19.00;99.90;;;;;;2495558;23;20199;-74
2023/08/24 04:36:37;;;;;;;7.57;6.82;;;19.00;99.90;;;;;;2483302;23;20102;-73
2023/08/24 04:37:38;;;;;;;11.38;7.25;;;19.00;99.90;;;;;;2483039;23;20011;-73
2023/08/24 04:38:38;;;;;;;11.43;7.88;;;19.00;99.90;;;;;;2495547;23;20033;-74
2023/08/24 04:39:39;;;;;;;8.80;7.20;;;19.00;99.90;;;;;;2483436;23;20128;-73
2023/08/24 04:40:51;;;;;;;11.07;8.18;;;19.00;99.90;;;;;;2483351;23;20014;-74
2023/08/24 04:41:52;;;;;;;10.38;7.53;;;19.10;99.90;;;;;;2495259;23;20098;-74
2023/08/24 04:42:52;;;;;;;10.57;7.97;;;19.10;99.90;;;;;;2493731;23;20011;-74
2023/08/24 04:43:53;;;;;;;10.50;7.90;;;19.10;99.90;;;;;;2483517;23;20040;-74
2023/08/24 04:44:53;;;;;;;9.95;7.10;;;19.10;99.90;;;;;;2483471;23;20465;-74
2023/08/24 04:45:54;;;;;;;11.98;7.88;;;19.10;99.90;;;;;;2495479;23;20008;-74
2023/08/24 04:46:55;;;;;;;9.98;7.65;;;19.10;99.90;;;;;;2495581;23;20027;-74
2023/08/24 04:47:56;;;;;;;9.05;8.18;;;19.10;99.90;;;;;;2495894;23;20413;-74
2023/08/24 04:48:56;;;;;;;9.80;7.38;;;19.20;99.90;;;;;;2495558;23;20004;-74
2023/08/24 04:49:57;;;;;;;11.70;7.65;;;19.20;99.90;;;;;;2496293;23;20102;-74
2023/08/24 04:50:58;;;;;;;11.13;7.95;;;19.20;99.90;;;;;;2496863;23;19999;-73
2023/08/24 04:51:59;;;;;;;10.43;7.55;;;19.20;99.90;;;;;;2496625;23;20074;-74
2023/08/24 04:52:59;;;;;;;10.00;7.38;;;19.20;99.90;;;;;;2495419;23;20031;-74
2023/08/24 04:54:00;;;;;;;10.02;7.72;;;19.20;99.90;;;;;;2496550;23;20010;-74
2023/08/24 04:55:01;;;;;;;7.72;6.93;;;19.20;99.90;;;;;;2495368;23;20082;-73
2023/08/24 04:56:01;;;;;;;9.20;7.25;;;19.20;99.90;;;;;;2496258;23;20007;-73
2023/08/24 04:57:02;;;;;;;8.43;7.07;;;19.20;99.90;;;;;;2495364;23;20310;-74
2023/08/24 04:58:03;;;;;;;8.98;7.40;;;19.20;99.90;;;;;;2496983;23;19999;-73
2023/08/24 04:59:03;;;;;;;8.85;7.35;;;19.30;99.90;;;;;;2496889;23;20428;-73
2023/08/24 05:00:05;;;;;;;9.40;7.90;;;19.20;99.90;;;;;;2496590;23;20433;-73
2023/08/24 05:01:05;;;;;;;13.15;7.78;;;19.30;99.90;;;;;;2496191;23;20007;-73
2023/08/24 05:02:06;;;;;;;10.77;7.63;;;19.30;99.90;;;;;;2496181;23;19999;-74
2023/08/24 05:03:07;;;;;;;12.45;7.75;;;19.30;99.90;;;;;;2496301;23;20743;-74
2023/08/24 05:04:08;;;;;;;10.60;8.05;;;19.30;99.90;;;;;;2496270;23;20035;-74
2023/08/24 05:05:13;;;;;;;13.15;8.77;;;19.30;99.90;;;;;;2496315;23;20003;-74
2023/08/24 05:06:14;;;;;;;12.23;7.45;;;19.30;99.90;;;;;;2496453;23;20086;-74
2023/08/24 05:07:15;;;;;;;9.32;7.82;;;19.30;99.90;;;;;;2496291;23;20027;-74
2023/08/24 05:08:15;;;;;;;10.63;7.10;;;19.30;99.90;;;;;;2496103;23;20007;-74
2023/08/24 05:09:16;;;;;;;11.32;7.80;;;19.30;99.90;;;;;;2496352;23;20056;-74
2023/08/24 05:10:16;;;;;;;13.75;7.28;;;19.30;99.90;;;;;;2496304;23;20003;-74
2023/08/24 05:11:18;;;;;;;9.80;8.20;;;19.30;99.90;;;;;;2495900;23;20496;-74
2023/08/24 05:12:19;;;;;;;8.18;6.85;;;19.30;99.90;;;;;;2495588;23;20006;-74
2023/08/24 05:13:19;;;;;;;12.93;7.25;;;19.30;99.90;;;;;;2496390;23;20035;-74
2023/08/24 05:14:20;;;;;;;16.85;7.72;;;19.20;99.90;;;;;;2496600;23;20408;-74
2023/08/24 05:15:21;;;;;;;7.93;6.97;;;19.30;99.90;;;;;;2496453;23;20090;-74
2023/08/24 05:16:21;;;;;;;12.82;7.65;;;19.20;99.90;;;;;;2483607;23;20118;-74
2023/08/24 05:17:24;;;;;;;10.35;7.57;;;19.20;99.90;;;;;;2484275;23;20215;-74
2023/08/24 05:18:25;;;;;;;11.00;7.07;;;19.20;99.90;;;;;;2496307;23;20403;-74
2023/08/24 05:19:25;;;;;;;10.60;7.55;;;19.20;99.90;;;;;;2495922;23;20092;-74
2023/08/24 05:20:26;;;;;;;15.50;7.38;;;19.20;99.90;;;;;;2496361;23;20078;-75